createdAt,value
2018-02-21T00:00:00.646Z,71.50
2018-02-21T00:02:29.928Z,72.00
2018-02-21T00:04:59.311Z,72.30
2018-02-21T00:07:29.324Z,71.80
2018-02-21T00:09:58.840Z,71.80
2018-02-21T00:12:28.844Z,72.50
2018-02-21T00:14:58.308Z,72.30
2018-02-21T00:17:27.576Z,72.40
2018-02-21T00:19:57.063Z,71.90
2018-02-21T00:22:27.207Z,71.70
2018-02-21T00:24:56.656Z,71.80
2018-02-21T00:27:25.901Z,71.60
2018-02-21T00:29:55.697Z,72.30
2018-02-21T00:32:24.936Z,72.30
2018-02-21T00:34:54.218Z,72.50
2018-02-21T00:37:23.568Z,72.70
2018-02-21T00:39:53.048Z,73.00
2018-02-21T00:42:22.368Z,73.50
2018-02-21T00:44:53.144Z,73.50
2018-02-21T00:47:22.648Z,73.40
2018-02-21T00:49:52.404Z,73.30
2018-02-21T00:52:22.444Z,73.20
2018-02-21T00:54:52.743Z,73.00
2018-02-21T00:57:22.105Z,73.30
2018-02-21T00:59:51.348Z,73.30
2018-02-21T01:02:20.913Z,73.70
2018-02-21T01:04:50.150Z,73.60
2018-02-21T01:07:19.923Z,74.00
2018-02-21T01:09:50.056Z,74.60
2018-02-21T01:12:20.389Z,75.10
2018-02-21T01:14:50.392Z,74.90
2018-02-21T01:17:19.651Z,74.90
2018-02-21T01:19:49.084Z,74.90
2018-02-21T01:22:18.321Z,74.80
2018-02-21T01:24:47.687Z,74.80
2018-02-21T01:27:16.991Z,74.90
2018-02-21T01:29:47.025Z,75.00
2018-02-21T01:32:16.379Z,75.00
2018-02-21T01:34:45.714Z,75.80
2018-02-21T01:37:15.746Z,75.30
2018-02-21T01:39:45.132Z,75.30
2018-02-21T01:42:14.636Z,75.30
2018-02-21T01:44:44.759Z,75.30
2018-02-21T01:47:14.605Z,75.30
2018-02-21T01:49:43.971Z,76.10
2018-02-21T01:52:13.928Z,75.30
2018-02-21T01:54:43.779Z,75.30
2018-02-21T01:57:13.303Z,75.90
2018-02-21T01:59:42.733Z,76.70
2018-02-21T02:02:13.553Z,76.20
2018-02-21T02:04:43.565Z,76.80
2018-02-21T02:07:13.376Z,76.70
2018-02-21T02:09:42.613Z,78.80
2018-02-21T02:12:11.988Z,77.10
2018-02-21T02:14:41.219Z,76.80
2018-02-21T02:17:10.579Z,77.00
2018-02-21T02:19:39.819Z,76.70
2018-02-21T02:22:09.109Z,77.30
2018-02-21T02:24:39.148Z,77.00
2018-02-21T02:27:08.392Z,77.40
2018-02-21T02:29:38.030Z,78.20
2018-02-21T02:32:07.276Z,77.50
2018-02-21T02:34:37.916Z,77.60
2018-02-21T02:37:07.189Z,78.80
2018-02-21T02:39:52.109Z,77.60
2018-02-21T02:42:21.346Z,77.80
2018-02-21T02:44:50.724Z,77.60
2018-02-21T02:47:20.730Z,79.10
2018-02-21T02:49:50.193Z,79.00
2018-02-21T02:52:19.440Z,79.40
2018-02-21T02:54:49.564Z,79.30
2018-02-21T02:57:19.572Z,79.00
2018-02-21T02:59:49.345Z,78.90
2018-02-21T03:02:18.585Z,79.00
2018-02-21T03:04:48.157Z,77.80
2018-02-21T03:07:18.331Z,79.00
2018-02-21T03:09:48.336Z,79.60
2018-02-21T03:12:17.732Z,79.60
2018-02-21T03:14:47.503Z,78.30
2018-02-21T03:17:17.765Z,79.30
2018-02-21T03:19:47.009Z,78.70
2018-02-21T03:22:16.831Z,78.70
2018-02-21T03:24:46.072Z,78.10
2018-02-21T03:27:15.584Z,78.10
2018-02-21T03:29:45.548Z,78.90
2018-02-21T03:32:20.738Z,79.20
2018-02-21T03:35:29.374Z,80.50
2018-02-21T03:37:59.480Z,78.90
2018-02-21T03:40:29.483Z,78.90
2018-02-21T03:42:58.900Z,80.40
2018-02-21T03:45:29.276Z,79.90
2018-02-21T03:47:58.747Z,80.30
2018-02-21T03:50:27.976Z,81.10
2018-02-21T03:52:57.216Z,80.40
2018-02-21T03:55:26.638Z,78.80
2018-02-21T03:57:55.874Z,78.20
2018-02-21T04:00:25.236Z,77.60
2018-02-21T04:02:54.478Z,77.80
2018-02-21T04:05:23.861Z,78.10
2018-02-21T04:07:53.567Z,78.50
2018-02-21T04:10:23.897Z,78.40
2018-02-21T04:12:54.814Z,78.90
2018-02-21T04:15:24.326Z,78.80
2018-02-21T04:17:54.332Z,79.10
2018-02-21T04:20:23.592Z,78.70
2018-02-21T04:22:53.038Z,78.10
2018-02-21T04:25:23.309Z,78.20
2018-02-21T04:27:52.750Z,78.30
2018-02-21T04:30:21.992Z,79.50
2018-02-21T04:32:52.087Z,78.60
2018-02-21T04:35:21.333Z,78.50
2018-02-21T04:37:50.644Z,78.10
2018-02-21T04:40:19.884Z,78.30
2018-02-21T04:42:49.559Z,79.60
2018-02-21T04:45:18.808Z,78.30
2018-02-21T04:47:48.931Z,79.10
2018-02-21T04:50:18.928Z,78.40
2018-02-21T04:52:49.151Z,78.40
2018-02-21T04:55:28.940Z,78.10
2018-02-21T04:58:03.745Z,78.40
2018-02-21T05:00:33.787Z,78.30
2018-02-21T05:03:03.179Z,78.60
2018-02-21T05:05:33.265Z,78.90
2018-02-21T05:08:02.499Z,79.10
2018-02-21T05:10:32.407Z,78.40
2018-02-21T05:13:02.404Z,78.30
2018-02-21T05:15:31.814Z,78.20
2018-02-21T05:18:01.044Z,78.50
2018-02-21T05:20:30.604Z,78.40
2018-02-21T05:23:00.272Z,78.50
2018-02-21T05:25:29.629Z,79.80
2018-02-21T05:27:58.873Z,80.70
2018-02-21T05:30:28.224Z,78.80
2018-02-21T05:32:57.469Z,79.10
2018-02-21T05:35:26.828Z,79.90
2018-02-21T05:37:56.208Z,78.60
2018-02-21T05:40:26.046Z,78.50
2018-02-21T05:42:55.566Z,78.40
2018-02-21T05:45:25.564Z,79.40
2018-02-21T05:47:54.986Z,79.40
2018-02-21T05:50:24.997Z,78.90
2018-02-21T05:52:54.396Z,78.90
2018-02-21T05:55:24.420Z,78.80
2018-02-21T05:57:53.741Z,78.80
2018-02-21T06:00:23.000Z,78.90
2018-02-21T06:02:53.045Z,79.20
2018-02-21T06:05:22.818Z,79.60
2018-02-21T06:07:52.057Z,80.70
2018-02-21T06:10:22.369Z,81.10
2018-02-21T06:12:52.402Z,80.20
2018-02-21T06:15:21.784Z,80.20
2018-02-21T06:17:51.020Z,79.80
2018-02-21T06:20:20.489Z,80.80
2018-02-21T06:22:50.659Z,80.90
2018-02-21T06:25:19.904Z,79.90
2018-02-21T06:27:49.232Z,79.50
2018-02-21T06:30:20.066Z,80.80
2018-02-21T06:32:49.581Z,80.70
2018-02-21T06:35:18.804Z,81.70
2018-02-21T06:37:48.120Z,80.00
2018-02-21T06:40:17.375Z,79.50
2018-02-21T06:42:46.771Z,79.10
2018-02-21T06:45:16.792Z,79.60
2018-02-21T06:47:46.176Z,79.50
2018-02-21T06:50:15.413Z,79.90
2018-02-21T06:52:47.033Z,80.30
2018-02-21T06:55:16.861Z,78.00
2018-02-21T06:57:46.245Z,77.50
2018-02-21T07:00:15.960Z,77.50
2018-02-21T07:02:45.196Z,77.20
2018-02-21T07:05:14.561Z,76.20
2018-02-21T07:07:43.903Z,78.00
2018-02-21T07:10:13.608Z,75.60
2018-02-21T07:12:42.888Z,76.00
2018-02-21T07:15:13.772Z,76.20
2018-02-21T07:17:43.231Z,76.10
2018-02-21T07:20:12.613Z,74.90
2018-02-21T07:22:41.872Z,75.70
2018-02-21T07:25:11.128Z,74.10
2018-02-21T07:27:40.527Z,74.10
2018-02-21T07:30:10.543Z,72.20
2018-02-21T07:32:40.632Z,73.10
2018-02-21T07:35:09.876Z,73.00
2018-02-21T07:37:39.957Z,73.80
2018-02-21T07:40:09.221Z,73.70
2018-02-21T07:42:38.523Z,74.30
2018-02-21T07:45:07.792Z,73.10
2018-02-21T07:47:37.176Z,74.00
2018-02-21T07:50:07.713Z,73.50
2018-02-21T07:52:37.789Z,71.20
2018-02-21T07:55:07.128Z,71.20
2018-02-21T07:57:36.361Z,70.60
2018-02-21T08:00:05.669Z,70.80
2018-02-21T08:02:34.901Z,71.70
2018-02-21T08:05:04.740Z,71.00
2018-02-21T08:07:33.977Z,70.00
2018-02-21T08:10:03.544Z,70.20
2018-02-21T08:12:32.768Z,69.70
2018-02-21T08:15:02.144Z,69.00
2018-02-21T08:17:31.388Z,68.90
2018-02-21T08:20:00.614Z,70.10
2018-02-21T08:22:29.975Z,70.10
2018-02-21T08:24:59.204Z,68.00
2018-02-21T08:27:28.508Z,68.60
2018-02-21T08:29:57.758Z,68.60
2018-02-21T08:32:27.109Z,67.70
2018-02-21T08:34:56.352Z,66.70
2018-02-21T08:37:25.654Z,65.30
2018-02-21T08:39:54.882Z,65.70
2018-02-21T08:42:24.255Z,65.70
2018-02-21T08:44:53.499Z,64.80
2018-02-21T08:47:23.189Z,64.50
2018-02-21T08:49:52.507Z,65.50
2018-02-21T08:52:21.740Z,65.10
2018-02-21T08:54:51.084Z,65.50
2018-02-21T08:57:20.704Z,64.80
2018-02-21T08:59:50.075Z,64.10
2018-02-21T09:02:19.300Z,61.80
2018-02-21T09:04:48.625Z,61.50
2018-02-21T09:07:17.881Z,60.00
2018-02-21T09:09:47.379Z,59.70
2018-02-21T09:12:16.609Z,60.50
2018-02-21T09:14:46.393Z,59.60
2018-02-21T09:17:15.625Z,60.10
2018-02-21T09:19:45.697Z,59.90
2018-02-21T09:22:15.096Z,59.80
2018-02-21T09:24:44.326Z,59.20
2018-02-21T09:27:13.651Z,58.80
2018-02-21T09:29:42.877Z,57.80
2018-02-21T09:32:12.187Z,57.00
2018-02-21T09:34:41.464Z,57.30
2018-02-21T09:37:11.912Z,57.70
2018-02-21T09:39:41.986Z,57.90
2018-02-21T09:42:11.322Z,57.50
2018-02-21T09:44:40.562Z,54.00
2018-02-21T09:47:11.580Z,54.80
2018-02-21T09:49:40.943Z,54.70
2018-02-21T09:52:10.294Z,53.80
2018-02-21T09:54:39.528Z,54.20
2018-02-21T09:57:09.541Z,53.70
2018-02-21T09:59:38.884Z,53.70
2018-02-21T10:02:08.128Z,54.30
2018-02-21T10:04:39.575Z,53.50
2018-02-21T10:07:08.802Z,53.50
2018-02-21T10:09:38.896Z,53.10
2018-02-21T10:12:08.108Z,53.10
2018-02-21T10:14:38.211Z,52.70
2018-02-21T10:17:07.489Z,52.70
2018-02-21T10:19:36.965Z,52.90
2018-02-21T10:22:06.229Z,51.60
2018-02-21T10:24:35.565Z,51.20
2018-02-21T10:27:04.783Z,49.80
2018-02-21T10:29:34.456Z,50.20
2018-02-21T10:32:03.686Z,49.10
2018-02-21T10:34:33.028Z,49.80
2018-02-21T10:37:03.063Z,48.60
2018-02-21T10:39:32.316Z,47.90
2018-02-21T10:42:01.613Z,47.00
2018-02-21T10:44:30.841Z,46.50
2018-02-21T10:47:00.297Z,46.70
2018-02-21T10:49:29.521Z,46.60
2018-02-21T10:51:58.949Z,46.50
2018-02-21T10:54:28.184Z,46.50
2018-02-21T10:56:57.534Z,46.20
2018-02-21T10:59:27.489Z,45.90
2018-02-21T11:01:58.629Z,44.00
2018-02-21T11:04:27.878Z,44.00
2018-02-21T11:06:57.100Z,44.30
2018-02-21T11:09:26.412Z,44.70
2018-02-21T11:11:55.645Z,44.90
2018-02-21T11:14:25.122Z,44.90
2018-02-21T11:16:54.778Z,44.90
2018-02-21T11:19:24.129Z,44.60
2018-02-21T11:21:53.361Z,43.80
2018-02-21T11:24:22.669Z,43.80
2018-02-21T11:26:51.904Z,43.50
2018-02-21T11:29:21.218Z,42.50
2018-02-21T11:31:50.447Z,42.10
2018-02-21T11:34:20.522Z,45.00
2018-02-21T11:36:49.767Z,44.30
2018-02-21T11:39:20.178Z,44.90
2018-02-21T11:41:49.397Z,43.70
2018-02-21T11:44:18.636Z,44.40
2018-02-21T11:46:47.993Z,45.20
2018-02-21T11:49:17.216Z,43.50
2018-02-21T11:51:46.542Z,43.00
2018-02-21T11:54:15.772Z,41.50
2018-02-21T11:56:45.287Z,42.40
2018-02-21T11:59:14.508Z,43.20
2018-02-21T12:01:44.288Z,43.40
2018-02-21T12:04:13.522Z,43.50
2018-02-21T12:06:43.037Z,43.60
2018-02-21T12:09:12.783Z,44.20
2018-02-21T12:11:42.726Z,44.20
2018-02-21T12:14:11.949Z,43.70
2018-02-21T12:16:42.717Z,43.90
2018-02-21T12:19:11.946Z,43.80
2018-02-21T12:21:41.179Z,44.20
2018-02-21T12:24:11.257Z,45.00
2018-02-21T12:26:40.502Z,44.90
2018-02-21T12:29:10.004Z,44.90
2018-02-21T12:31:40.001Z,45.70
2018-02-21T12:34:09.324Z,45.70
2018-02-21T12:36:39.324Z,45.80
2018-02-21T12:39:14.248Z,45.80
2018-02-21T12:41:43.956Z,45.90
2018-02-21T12:44:13.470Z,46.80
2018-02-21T12:46:42.710Z,47.00
2018-02-21T12:49:12.070Z,47.30
2018-02-21T12:51:41.311Z,47.90
2018-02-21T12:54:11.107Z,49.30
2018-02-21T12:56:40.333Z,49.00
2018-02-21T12:59:09.556Z,49.20
2018-02-21T13:01:38.896Z,49.30
2018-02-21T13:04:10.330Z,50.40
2018-02-21T13:06:40.420Z,50.40
2018-02-21T13:09:09.646Z,49.90
2018-02-21T13:11:39.086Z,50.50
2018-02-21T13:14:08.316Z,50.10
2018-02-21T13:16:37.617Z,50.70
2018-02-21T13:19:06.844Z,51.50
2018-02-21T13:21:36.353Z,51.10
2018-02-21T13:24:05.585Z,52.00
2018-02-21T13:26:35.167Z,52.30
2018-02-21T13:29:04.389Z,52.90
2018-02-21T13:31:33.612Z,52.00
2018-02-21T13:34:03.076Z,51.00
2018-02-21T13:36:32.316Z,51.30
2018-02-21T13:39:01.711Z,51.70
2018-02-21T13:41:31.664Z,52.40
2018-02-21T13:44:00.984Z,52.00
2018-02-21T13:46:30.214Z,51.50
2018-02-21T13:48:59.529Z,51.50
2018-02-21T13:51:28.757Z,50.80
2018-02-21T13:53:58.084Z,48.60
2018-02-21T13:56:27.315Z,46.00
2018-02-21T13:58:56.685Z,46.50
2018-02-21T14:01:26.828Z,46.80
2018-02-21T14:03:56.928Z,47.90
2018-02-21T14:06:26.304Z,47.90
2018-02-21T14:08:55.556Z,48.40
2018-02-21T14:11:25.620Z,48.80
2018-02-21T14:13:55.889Z,48.80
2018-02-21T14:16:25.210Z,48.60
2018-02-21T14:18:54.457Z,49.90
2018-02-21T14:21:23.758Z,49.70
2018-02-21T14:23:53.807Z,49.30
2018-02-21T14:26:24.112Z,49.60
2018-02-21T14:28:53.365Z,49.60
2018-02-21T14:31:23.859Z,49.50
2018-02-21T14:33:53.164Z,49.80
2018-02-21T14:36:22.400Z,50.20
2018-02-21T14:38:51.715Z,50.80
2018-02-21T14:41:21.037Z,50.90
2018-02-21T14:43:50.452Z,52.00
2018-02-21T14:46:19.713Z,52.10
2018-02-21T14:48:49.004Z,52.20
2018-02-21T14:51:18.253Z,52.00
2018-02-21T14:53:48.912Z,53.10
2018-02-21T14:56:18.902Z,52.80
2018-02-21T14:58:48.299Z,52.70
2018-02-21T15:01:17.533Z,53.20
2018-02-21T15:03:46.769Z,53.90
2018-02-21T15:06:16.122Z,53.40
2018-02-21T15:08:45.416Z,52.40
2018-02-21T15:11:14.729Z,52.60
2018-02-21T15:13:43.992Z,52.50
2018-02-21T15:16:18.952Z,52.80
2018-02-21T15:18:48.940Z,51.50
2018-02-21T15:21:18.256Z,51.50
2018-02-21T15:23:47.497Z,52.30
2018-02-21T15:26:17.459Z,52.60
2018-02-21T15:28:46.700Z,53.10
2018-02-21T15:31:16.773Z,51.90
2018-02-21T15:33:46.145Z,51.90
2018-02-21T15:36:15.593Z,51.90
2018-02-21T15:38:44.845Z,51.90
2018-02-21T15:41:14.322Z,51.80
2018-02-21T15:43:43.702Z,52.50
2018-02-21T15:46:12.937Z,52.10
2018-02-21T15:48:42.291Z,51.30
2018-02-21T15:51:12.285Z,52.60
2018-02-21T15:53:41.602Z,51.90
2018-02-21T15:56:10.829Z,52.50
2018-02-21T15:58:40.959Z,52.80
2018-02-21T16:01:11.020Z,53.20
2018-02-21T16:03:40.278Z,53.10
2018-02-21T16:06:10.352Z,55.10
2018-02-21T16:08:39.577Z,54.50
2018-02-21T16:11:09.107Z,54.50
2018-02-21T16:13:39.129Z,54.90
2018-02-21T16:16:08.412Z,54.90
2018-02-21T16:18:37.645Z,55.70
2018-02-21T16:21:07.924Z,55.80
2018-02-21T16:23:37.167Z,56.00
2018-02-21T16:26:06.460Z,56.20
2018-02-21T16:28:35.696Z,57.20
2018-02-21T16:31:05.045Z,55.80
2018-02-21T16:33:34.244Z,55.80
2018-02-21T16:36:03.562Z,56.20
2018-02-21T16:38:32.795Z,56.20
2018-02-21T16:41:02.096Z,57.30
2018-02-21T16:43:31.328Z,56.10
2018-02-21T16:46:00.828Z,56.50
2018-02-21T16:48:30.699Z,56.30
2018-02-21T16:51:00.065Z,56.70
2018-02-21T16:53:30.052Z,56.20
2018-02-21T16:55:59.890Z,56.10
2018-02-21T16:58:29.132Z,56.50
2018-02-21T17:00:58.893Z,56.60
2018-02-21T17:03:28.173Z,56.90
2018-02-21T17:05:57.636Z,57.40
2018-02-21T17:08:26.880Z,56.90
2018-02-21T17:10:56.193Z,57.60
2018-02-21T17:13:25.444Z,57.00
2018-02-21T17:15:54.757Z,57.60
2018-02-21T17:18:23.984Z,57.50
2018-02-21T17:20:53.343Z,57.50
2018-02-21T17:23:23.319Z,58.00
2018-02-21T17:25:52.632Z,57.90
2018-02-21T17:28:23.032Z,57.90
2018-02-21T17:30:52.347Z,58.10
2018-02-21T17:33:21.568Z,58.40
2018-02-21T17:35:50.877Z,58.90
2018-02-21T17:38:20.369Z,59.70
2018-02-21T17:40:55.060Z,59.50
2018-02-21T17:43:25.800Z,60.60
2018-02-21T17:45:55.118Z,60.70
2018-02-21T17:48:24.340Z,61.10
2018-02-21T17:50:53.640Z,62.40
2018-02-21T17:53:22.896Z,61.70
2018-02-21T17:55:52.232Z,62.40
2018-02-21T17:58:21.447Z,62.00
2018-02-21T18:00:50.832Z,62.80
2018-02-21T18:03:20.142Z,62.60
2018-02-21T18:05:49.408Z,62.80
2018-02-21T18:08:18.632Z,62.80
2018-02-21T18:10:48.696Z,64.20
2018-02-21T18:13:17.930Z,64.20
2018-02-21T18:15:47.251Z,64.80
2018-02-21T18:18:16.488Z,64.20
2018-02-21T18:20:45.822Z,64.00
2018-02-21T18:23:15.053Z,63.90
2018-02-21T18:25:45.137Z,64.80
2018-02-21T18:28:14.379Z,64.80
2018-02-21T18:30:43.700Z,65.00
2018-02-21T18:33:12.941Z,65.50
2018-02-21T18:35:42.352Z,65.50
2018-02-21T18:38:11.581Z,66.50
2018-02-21T18:40:40.876Z,67.00
2018-02-21T18:43:10.124Z,68.70
2018-02-21T18:45:40.077Z,69.60
2018-02-21T18:48:09.317Z,70.10
2018-02-21T18:50:38.631Z,70.80
2018-02-21T18:53:07.844Z,71.50
2018-02-21T18:55:37.164Z,72.30
2018-02-21T18:58:06.392Z,73.60
2018-02-21T19:00:36.005Z,73.10
2018-02-21T19:03:06.422Z,73.40
2018-02-21T19:05:35.800Z,73.40
2018-02-21T19:08:05.034Z,73.40
2018-02-21T19:10:34.356Z,73.40
2018-02-21T19:13:03.636Z,73.60
2018-02-21T19:15:33.017Z,74.10
2018-02-21T19:18:02.241Z,74.10
2018-02-21T19:20:31.693Z,74.40
2018-02-21T19:23:00.969Z,74.60
2018-02-21T19:25:30.257Z,74.40
2018-02-21T19:27:59.493Z,74.70
2018-02-21T19:30:29.252Z,75.90
2018-02-21T19:32:59.233Z,76.00
2018-02-21T19:35:28.568Z,76.00
2018-02-21T19:37:57.808Z,77.00
2018-02-21T19:40:27.126Z,76.90
2018-02-21T19:42:56.956Z,76.80
2018-02-21T19:45:26.430Z,76.90
2018-02-21T19:47:55.943Z,77.70
2018-02-21T19:50:25.331Z,76.90
2018-02-21T19:52:54.559Z,76.90
2018-02-21T19:55:23.966Z,76.90
2018-02-21T19:57:53.180Z,78.00
2018-02-21T20:00:22.599Z,78.10
2018-02-21T20:02:51.800Z,78.20
2018-02-21T20:05:21.897Z,79.00
2018-02-21T20:07:51.130Z,78.90
2018-02-21T20:10:20.523Z,78.80
2018-02-21T20:12:50.537Z,78.90
2018-02-21T20:15:19.865Z,78.70
2018-02-21T20:17:49.111Z,79.90
2018-02-21T20:20:18.559Z,80.00
2018-02-21T20:22:48.553Z,79.70
2018-02-21T20:25:17.855Z,79.60
2018-02-21T20:27:47.088Z,79.50
2018-02-21T20:30:16.411Z,79.10
2018-02-21T20:32:45.661Z,79.40
2018-02-21T20:35:15.781Z,80.80
2018-02-21T20:37:45.798Z,80.40
2018-02-21T20:40:15.128Z,80.30
2018-02-21T20:42:44.384Z,80.40
2018-02-21T20:45:13.722Z,80.50
2018-02-21T20:47:42.963Z,80.90
2018-02-21T20:50:12.604Z,81.30
2018-02-21T20:52:41.845Z,81.10
2018-02-21T20:55:12.133Z,80.90
2018-02-21T20:57:41.385Z,81.20
2018-02-21T21:00:10.713Z,81.30
2018-02-21T21:02:40.008Z,82.10
2018-02-21T21:05:09.241Z,81.70
2018-02-21T21:07:38.568Z,81.60
2018-02-21T21:10:07.845Z,82.30
2018-02-21T21:12:37.184Z,82.40
2018-02-21T21:15:06.443Z,83.90
2018-02-21T21:17:35.737Z,82.40
2018-02-21T21:20:05.746Z,83.30
2018-02-21T21:22:35.153Z,83.30
2018-02-21T21:25:05.161Z,81.80
2018-02-21T21:27:34.517Z,81.80
2018-02-21T21:30:03.817Z,81.20
2018-02-21T21:32:33.100Z,82.50
2018-02-21T21:35:02.346Z,81.90
2018-02-21T21:37:31.777Z,81.60
2018-02-21T21:40:00.999Z,82.40
2018-02-21T21:42:31.593Z,82.00
2018-02-21T21:45:00.828Z,82.20
2018-02-21T21:47:30.625Z,82.40
2018-02-21T21:50:01.483Z,82.00
2018-02-21T21:52:30.779Z,82.00
2018-02-21T21:55:00.061Z,81.90
2018-02-21T21:57:29.390Z,81.80
2018-02-21T21:59:58.630Z,81.40
2018-02-21T22:02:28.656Z,81.30
2018-02-21T22:04:57.890Z,81.70
2018-02-21T22:07:27.261Z,82.00
2018-02-21T22:09:57.092Z,81.60
2018-02-21T22:12:26.500Z,82.10
2018-02-21T22:14:56.503Z,81.50
2018-02-21T22:17:26.332Z,82.30
2018-02-21T22:19:56.429Z,82.20
2018-02-21T22:22:25.817Z,82.00
2018-02-21T22:24:55.158Z,81.90
2018-02-21T22:27:24.402Z,81.80
2018-02-21T22:29:53.853Z,82.30
2018-02-21T22:32:23.886Z,83.40
2018-02-21T22:34:53.208Z,83.40
2018-02-21T22:37:22.448Z,83.10
2018-02-21T22:39:51.692Z,83.00
2018-02-21T22:42:21.045Z,83.40
2018-02-21T22:44:50.281Z,83.70
2018-02-21T22:47:20.353Z,83.90
2018-02-21T22:49:49.597Z,84.00
2018-02-21T22:52:19.010Z,85.00
2018-02-21T22:54:49.006Z,85.60
2018-02-21T22:57:18.398Z,85.50
2018-02-21T22:59:47.741Z,85.60
2018-02-21T23:02:16.973Z,84.70
2018-02-21T23:04:46.288Z,85.20
2018-02-21T23:07:15.533Z,82.90
2018-02-21T23:09:44.856Z,83.20
2018-02-21T23:12:14.101Z,84.20
2018-02-21T23:14:43.448Z,82.90
2018-02-21T23:17:12.718Z,84.00
2018-02-21T23:19:41.968Z,83.90
2018-02-21T23:22:11.406Z,83.90
2018-02-21T23:24:40.848Z,83.90
2018-02-21T23:27:10.256Z,84.20
2018-02-21T23:29:39.509Z,83.40
2018-02-21T23:32:09.012Z,84.20
2018-02-21T23:34:38.248Z,83.00
2018-02-21T23:37:07.584Z,81.00
2018-02-21T23:39:36.821Z,82.40
2018-02-21T23:42:06.064Z,81.50
2018-02-21T23:44:38.259Z,81.20
2018-02-21T23:47:07.892Z,81.50
2018-02-21T23:49:37.476Z,81.80
2018-02-21T23:52:06.997Z,81.80
2018-02-21T23:54:37.243Z,82.60
2018-02-21T23:57:06.464Z,82.50
2018-02-21T23:59:36.575Z,82.90
